createdAt,value
2019-02-15T00:00:47.087Z,14.83
2019-02-15T00:03:19.166Z,15.33
2019-02-15T00:05:51.191Z,14.70
2019-02-15T00:08:23.172Z,15.27
2019-02-15T00:10:55.314Z,15.77
2019-02-15T00:13:27.359Z,15.67
2019-02-15T00:15:59.355Z,15.80
2019-02-15T00:18:40.550Z,16.13
2019-02-15T00:21:20.546Z,15.30
2019-02-15T00:23:52.509Z,16.13
2019-02-15T00:26:26.302Z,15.40
2019-02-15T00:28:58.256Z,15.73
2019-02-15T00:31:30.394Z,13.97
2019-02-15T00:34:02.356Z,15.37
2019-02-15T00:36:34.362Z,14.43
2019-02-15T00:39:06.647Z,14.57
2019-02-15T00:41:38.646Z,15.53
2019-02-15T00:44:10.651Z,14.67
2019-02-15T00:46:59.157Z,14.57
2019-02-15T00:49:56.792Z,14.13
2019-02-15T00:52:36.464Z,14.53
2019-02-15T00:55:28.024Z,14.93
2019-02-15T00:58:18.618Z,13.73
2019-02-15T01:01:04.974Z,13.13
2019-02-15T01:04:01.666Z,14.87
2019-02-15T01:06:56.108Z,13.93
2019-02-15T01:09:46.157Z,13.40
2019-02-15T01:12:28.736Z,14.73
2019-02-15T01:15:00.726Z,13.50
2019-02-15T01:17:32.681Z,14.53
2019-02-15T01:20:04.750Z,15.13
2019-02-15T01:22:36.740Z,14.07
2019-02-15T01:25:08.728Z,15.07
2019-02-15T01:28:06.345Z,14.30
2019-02-15T01:30:57.659Z,14.50
2019-02-15T01:33:49.165Z,15.07
2019-02-15T01:36:40.797Z,15.03
2019-02-15T01:39:17.921Z,13.83
2019-02-15T01:42:09.557Z,15.23
2019-02-15T01:45:01.221Z,14.70
2019-02-15T01:47:40.251Z,14.67
2019-02-15T01:50:12.205Z,14.03
2019-02-15T01:52:45.041Z,13.50
2019-02-15T01:55:17.118Z,15.50
2019-02-15T01:57:49.081Z,12.90
2019-02-15T02:00:25.617Z,14.37
2019-02-15T02:02:57.585Z,14.27
2019-02-15T02:05:29.608Z,14.90
2019-02-15T02:08:01.891Z,13.03
2019-02-15T02:10:33.902Z,14.23
2019-02-15T02:13:05.869Z,14.70
2019-02-15T02:15:37.867Z,14.10
2019-02-15T02:18:09.827Z,13.40
2019-02-15T02:20:41.835Z,12.93
2019-02-15T02:23:13.886Z,11.13
2019-02-15T02:25:47.436Z,11.80
2019-02-15T02:28:19.395Z,10.73
2019-02-15T02:30:51.377Z,11.17
2019-02-15T02:33:23.358Z,13.03
2019-02-15T02:35:55.343Z,13.87
2019-02-15T02:38:27.294Z,12.83
2019-02-15T02:40:59.296Z,12.60
2019-02-15T02:43:31.271Z,14.00
2019-02-15T02:46:03.275Z,14.50
2019-02-15T02:48:35.240Z,15.13
2019-02-15T02:51:07.235Z,14.30
2019-02-15T02:53:39.250Z,16.10
2019-02-15T02:56:11.229Z,14.53
2019-02-15T02:58:43.210Z,16.33
2019-02-15T03:01:15.190Z,16.20
2019-02-15T03:03:47.197Z,15.77
2019-02-15T03:06:19.149Z,14.97
2019-02-15T03:08:51.131Z,15.17
2019-02-15T03:11:23.137Z,15.60
2019-02-15T03:13:55.231Z,14.83
2019-02-15T03:16:27.204Z,15.90
2019-02-15T03:18:59.295Z,15.27
2019-02-15T03:21:31.505Z,15.40
2019-02-15T03:24:03.482Z,14.87
2019-02-15T03:26:35.453Z,13.83
2019-02-15T03:29:07.446Z,14.10
2019-02-15T03:31:39.427Z,13.30
2019-02-15T03:34:11.417Z,13.70
2019-02-15T03:37:06.155Z,14.70
2019-02-15T03:39:50.120Z,15.13
2019-02-15T03:42:22.185Z,13.90
2019-02-15T03:44:54.164Z,14.23
2019-02-15T03:47:27.028Z,14.03
2019-02-15T03:49:59.021Z,14.00
2019-02-15T03:52:30.983Z,13.33
2019-02-15T03:55:03.599Z,13.07
2019-02-15T03:57:35.587Z,13.47
2019-02-15T04:00:09.452Z,13.03
2019-02-15T04:02:41.403Z,12.40
2019-02-15T04:05:13.404Z,12.03
2019-02-15T04:07:45.434Z,11.53
2019-02-15T04:10:17.407Z,12.13
2019-02-15T04:12:49.383Z,12.40
2019-02-15T04:15:23.199Z,12.50
2019-02-15T04:17:55.233Z,15.50
2019-02-15T04:20:27.235Z,16.27
2019-02-15T04:23:01.006Z,14.20
2019-02-15T04:25:33.006Z,12.67
2019-02-15T04:28:04.989Z,15.03
2019-02-15T04:30:36.973Z,13.30
2019-02-15T04:33:08.936Z,13.40
2019-02-15T04:35:40.927Z,13.03
2019-02-15T04:38:12.879Z,12.73
2019-02-15T04:40:44.872Z,12.23
2019-02-15T04:43:16.860Z,12.10
2019-02-15T04:45:48.923Z,13.90
2019-02-15T04:48:20.894Z,13.53
2019-02-15T04:50:52.877Z,13.77
2019-02-15T04:53:25.857Z,11.97
2019-02-15T04:55:57.858Z,12.90
2019-02-15T04:58:29.843Z,11.37
2019-02-15T05:01:01.842Z,11.53
2019-02-15T05:03:33.857Z,11.10
2019-02-15T05:06:05.914Z,12.30
2019-02-15T05:08:37.991Z,12.37
2019-02-15T05:11:09.980Z,13.47
2019-02-15T05:13:41.975Z,13.80
2019-02-15T05:16:13.932Z,13.27
2019-02-15T05:18:45.961Z,13.47
2019-02-15T05:21:17.932Z,13.60
2019-02-15T05:23:49.920Z,11.47
2019-02-15T05:26:21.891Z,14.00
2019-02-15T05:28:53.877Z,13.93
2019-02-15T05:31:25.833Z,13.30
2019-02-15T05:33:59.644Z,13.33
2019-02-15T05:36:31.633Z,14.03
2019-02-15T05:39:06.449Z,13.40
2019-02-15T05:41:38.443Z,11.77
2019-02-15T05:44:11.535Z,12.57
2019-02-15T05:46:43.512Z,14.33
2019-02-15T05:49:15.522Z,13.43
2019-02-15T05:51:47.757Z,13.53
2019-02-15T05:54:19.962Z,13.70
2019-02-15T05:56:51.955Z,14.67
2019-02-15T05:59:23.956Z,12.80
2019-02-15T06:01:55.932Z,14.23
2019-02-15T06:04:28.509Z,12.40
2019-02-15T06:07:00.493Z,14.90
2019-02-15T06:09:32.507Z,13.87
2019-02-15T06:12:04.521Z,13.30
2019-02-15T06:14:36.712Z,13.23
2019-02-15T06:17:08.685Z,14.80
2019-02-15T06:19:41.988Z,12.53
2019-02-15T06:22:13.966Z,12.63
2019-02-15T06:24:45.955Z,13.30
2019-02-15T06:27:17.915Z,12.30
2019-02-15T06:29:51.141Z,12.00
2019-02-15T06:32:23.124Z,11.63
2019-02-15T06:34:55.112Z,12.33
2019-02-15T06:37:27.115Z,12.90
2019-02-15T06:39:59.119Z,12.83
2019-02-15T06:42:31.115Z,13.63
2019-02-15T06:45:03.703Z,14.60
2019-02-15T06:47:35.689Z,14.50
2019-02-15T06:50:07.726Z,14.77
2019-02-15T06:52:39.743Z,13.80
2019-02-15T06:55:12.406Z,15.37
2019-02-15T06:57:44.449Z,13.47
2019-02-15T07:00:30.556Z,14.30
2019-02-15T07:03:22.143Z,14.10
2019-02-15T07:05:55.493Z,12.97
2019-02-15T07:08:27.452Z,13.50
2019-02-15T07:10:59.853Z,13.83
2019-02-15T07:13:31.904Z,13.33
2019-02-15T07:16:03.935Z,12.03
2019-02-15T07:18:35.916Z,14.13
2019-02-15T07:21:07.952Z,13.43
2019-02-15T07:23:39.947Z,14.27
2019-02-15T07:26:11.958Z,14.77
2019-02-15T07:28:43.960Z,14.07
2019-02-15T07:31:15.981Z,12.73
2019-02-15T07:33:47.997Z,12.63
2019-02-15T07:36:20.038Z,12.40
2019-02-15T07:38:52.053Z,13.00
2019-02-15T07:41:24.059Z,11.73
2019-02-15T07:43:56.056Z,11.47
2019-02-15T07:46:28.016Z,11.37
2019-02-15T07:49:00.027Z,11.93
2019-02-15T07:51:31.989Z,11.40
2019-02-15T07:54:04.009Z,11.17
2019-02-15T07:56:35.975Z,11.13
2019-02-15T07:59:07.957Z,11.67
2019-02-15T08:01:39.924Z,13.67
2019-02-15T08:04:11.915Z,12.30
2019-02-15T08:06:43.883Z,11.83
2019-02-15T08:09:15.851Z,11.27
2019-02-15T08:11:48.089Z,11.73
2019-02-15T08:14:20.182Z,12.07
2019-02-15T08:16:52.189Z,13.23
2019-02-15T08:19:24.171Z,13.17
2019-02-15T08:21:56.134Z,13.20
2019-02-15T08:24:28.131Z,12.80
2019-02-15T08:27:00.117Z,13.23
2019-02-15T08:29:32.111Z,13.97
2019-02-15T08:32:04.109Z,15.43
2019-02-15T08:34:36.116Z,14.10
2019-02-15T08:37:08.260Z,12.80
2019-02-15T08:39:40.234Z,13.90
2019-02-15T08:42:12.191Z,13.23
2019-02-15T08:44:44.144Z,13.60
2019-02-15T08:47:16.161Z,14.53
2019-02-15T08:49:48.172Z,12.97
2019-02-15T08:52:20.135Z,13.97
2019-02-15T08:54:52.154Z,13.33
2019-02-15T08:57:24.162Z,13.60
2019-02-15T08:59:56.131Z,14.63
2019-02-15T09:02:28.094Z,15.90
2019-02-15T09:05:01.962Z,14.87
2019-02-15T09:07:33.989Z,15.83
2019-02-15T09:10:07.400Z,15.50
2019-02-15T09:12:39.420Z,15.53
2019-02-15T09:15:14.125Z,17.33
2019-02-15T09:17:46.102Z,14.43
2019-02-15T09:20:18.111Z,14.73
2019-02-15T09:22:50.071Z,17.80
2019-02-15T09:25:22.101Z,18.03
2019-02-15T09:28:13.682Z,16.97
2019-02-15T09:30:51.644Z,20.67
2019-02-15T09:33:23.646Z,18.47
2019-02-15T09:35:55.664Z,17.67
2019-02-15T09:38:27.652Z,19.27
2019-02-15T09:40:59.696Z,17.23
2019-02-15T09:43:31.636Z,15.67
2019-02-15T09:46:03.637Z,16.03
2019-02-15T09:48:35.613Z,16.50
2019-02-15T09:51:07.616Z,16.23
2019-02-15T09:56:31.793Z,14.50
2019-02-15T09:59:03.777Z,14.10
2019-02-15T10:01:35.784Z,13.30
2019-02-15T10:04:07.811Z,12.53
2019-02-15T10:06:39.815Z,13.33
2019-02-15T10:09:11.860Z,12.27
2019-02-15T10:11:43.836Z,13.67
2019-02-15T10:14:15.862Z,14.33
2019-02-15T10:16:48.060Z,13.80
2019-02-15T10:19:22.487Z,13.00
2019-02-15T10:21:53.993Z,10.30
2019-02-15T10:24:26.005Z,10.83
2019-02-15T10:26:57.963Z,9.87
2019-02-15T10:29:30.016Z,9.90
2019-02-15T10:32:02.114Z,8.93
2019-02-15T10:34:34.143Z,8.77
2019-02-15T10:37:06.127Z,7.70
2019-02-15T10:39:38.109Z,8.30
2019-02-15T10:42:10.099Z,9.43
2019-02-15T10:44:42.155Z,7.97
2019-02-15T10:47:18.773Z,6.67
2019-02-15T10:49:48.057Z,7.73
2019-02-15T10:52:20.038Z,7.67
2019-02-15T10:54:52.023Z,8.50
2019-02-15T10:57:24.008Z,8.70
2019-02-15T10:59:55.984Z,9.13
2019-02-15T11:02:27.958Z,8.97
2019-02-15T11:05:00.010Z,7.20
2019-02-15T11:07:32.002Z,7.17
2019-02-15T11:10:04.367Z,6.47
2019-02-15T11:12:36.351Z,6.13
2019-02-15T11:15:09.513Z,5.97
2019-02-15T11:17:41.510Z,6.03
2019-02-15T11:20:13.815Z,4.77
2019-02-15T11:22:45.840Z,4.43
2019-02-15T11:25:20.856Z,3.57
2019-02-15T11:27:52.896Z,3.60
2019-02-15T11:30:24.978Z,3.90
2019-02-15T11:32:57.000Z,4.07
2019-02-15T11:35:29.036Z,3.47
2019-02-15T11:38:01.056Z,2.47
2019-02-15T11:40:33.076Z,2.90
2019-02-15T11:43:05.061Z,2.70
2019-02-15T11:45:37.131Z,2.70
2019-02-15T11:48:09.146Z,2.93
2019-02-15T11:50:41.155Z,2.90
2019-02-15T11:53:13.188Z,2.83
2019-02-15T11:55:45.184Z,2.92
2019-02-15T11:58:17.201Z,2.13
2019-02-15T12:00:49.193Z,2.33
2019-02-15T12:03:21.176Z,1.70
2019-02-15T12:05:53.183Z,1.90
2019-02-15T12:08:25.168Z,2.13
2019-02-15T12:10:57.182Z,2.03
2019-02-15T12:13:29.221Z,2.10
2019-02-15T12:16:01.260Z,2.10
2019-02-15T12:18:33.323Z,2.10
2019-02-15T12:21:05.324Z,1.92
2019-02-15T12:23:37.375Z,2.20
2019-02-15T12:26:09.394Z,2.00
2019-02-15T12:28:41.413Z,2.10
2019-02-15T12:31:13.471Z,2.50
2019-02-15T12:33:45.504Z,2.12
2019-02-15T12:36:17.528Z,2.80
2019-02-15T12:38:49.562Z,2.37
2019-02-15T12:41:21.581Z,2.42
2019-02-15T12:43:53.580Z,2.55
2019-02-15T12:46:25.653Z,2.43
2019-02-15T12:48:57.661Z,2.30
2019-02-15T12:51:29.680Z,2.63
2019-02-15T12:54:01.717Z,2.53
2019-02-15T12:56:33.698Z,2.43
2019-02-15T12:59:05.729Z,2.50
2019-02-15T13:01:37.711Z,2.33
2019-02-15T13:04:09.797Z,2.70
2019-02-15T13:06:43.166Z,2.60
2019-02-15T13:09:15.243Z,2.50
2019-02-15T13:11:47.287Z,3.00
2019-02-15T13:14:19.311Z,2.87
2019-02-15T13:16:51.356Z,3.30
2019-02-15T13:19:23.440Z,2.83
2019-02-15T13:21:55.408Z,2.95
2019-02-15T13:24:27.463Z,2.80
2019-02-15T13:26:59.461Z,2.80
2019-02-15T13:29:31.541Z,3.27
2019-02-15T13:32:03.548Z,3.00
2019-02-15T13:34:35.566Z,3.23
2019-02-15T13:37:07.566Z,3.33
2019-02-15T13:39:39.626Z,3.42
2019-02-15T13:42:11.626Z,3.30
2019-02-15T13:44:43.645Z,3.10
2019-02-15T13:47:15.691Z,3.30
2019-02-15T13:49:47.737Z,3.30
2019-02-15T13:52:19.765Z,3.20
2019-02-15T13:54:51.766Z,3.70
2019-02-15T13:57:23.787Z,3.00
2019-02-15T13:59:55.765Z,3.27
2019-02-15T14:02:27.785Z,3.20
2019-02-15T14:04:59.759Z,3.50
2019-02-15T14:07:31.782Z,3.33
2019-02-15T14:10:04.336Z,3.50
2019-02-15T14:12:36.387Z,3.70
2019-02-15T14:15:08.521Z,3.70
2019-02-15T14:17:45.311Z,3.80
2019-02-15T14:20:14.582Z,3.20
2019-02-15T14:22:46.536Z,4.10
2019-02-15T14:25:18.557Z,3.85
2019-02-15T14:27:50.605Z,3.53
2019-02-15T14:30:22.608Z,3.47
2019-02-15T14:32:54.609Z,4.03
2019-02-15T14:35:26.625Z,3.70
2019-02-15T14:37:58.673Z,4.10
2019-02-15T14:40:30.660Z,3.67
2019-02-15T14:43:02.666Z,3.53
2019-02-15T14:45:34.642Z,3.35
2019-02-15T14:48:06.678Z,3.72
2019-02-15T14:50:38.733Z,3.70
2019-02-15T14:53:10.720Z,3.40
2019-02-15T14:55:42.699Z,3.77
2019-02-15T14:58:14.709Z,4.03
2019-02-15T15:00:46.924Z,4.00
2019-02-15T15:03:19.049Z,3.60
2019-02-15T15:05:51.050Z,2.90
2019-02-15T15:08:23.060Z,3.60
2019-02-15T15:10:55.089Z,3.70
2019-02-15T15:13:27.144Z,3.30
2019-02-15T15:15:59.116Z,3.70
2019-02-15T15:18:31.097Z,3.42
2019-02-15T15:21:03.104Z,4.03
2019-02-15T15:23:35.138Z,3.90
2019-02-15T15:26:11.833Z,3.93
2019-02-15T15:28:41.123Z,4.07
2019-02-15T15:31:13.088Z,4.10
2019-02-15T15:33:45.123Z,3.93
2019-02-15T15:36:18.334Z,4.05
2019-02-15T15:38:50.635Z,3.67
2019-02-15T15:41:22.595Z,4.53
2019-02-15T15:43:54.607Z,4.40
2019-02-15T15:46:26.618Z,4.73
2019-02-15T15:48:58.628Z,4.10
2019-02-15T15:51:30.707Z,3.87
2019-02-15T15:54:02.698Z,4.13
2019-02-15T15:56:34.764Z,4.50
2019-02-15T15:59:06.793Z,5.07
2019-02-15T16:01:38.850Z,5.10
2019-02-15T16:04:10.921Z,5.30
2019-02-15T16:06:42.916Z,4.67
2019-02-15T16:09:14.945Z,4.13
2019-02-15T16:11:47.014Z,4.77
2019-02-15T16:14:19.052Z,4.53
2019-02-15T16:16:51.083Z,3.80
2019-02-15T16:19:23.269Z,4.50
2019-02-15T16:21:55.306Z,3.60
2019-02-15T16:24:27.322Z,4.07
2019-02-15T16:26:59.371Z,4.70
2019-02-15T16:29:31.376Z,4.13
2019-02-15T16:32:03.460Z,3.73
2019-02-15T16:34:35.483Z,4.30
2019-02-15T16:37:07.544Z,5.07
2019-02-15T16:39:39.533Z,4.53
2019-02-15T16:42:11.626Z,4.67
2019-02-15T16:44:43.675Z,5.13
2019-02-15T16:47:15.663Z,4.60
2019-02-15T16:49:47.663Z,4.47
2019-02-15T16:52:19.703Z,4.10
2019-02-15T16:54:51.709Z,5.83
2019-02-15T16:57:23.755Z,8.20
2019-02-15T16:59:55.785Z,7.70
2019-02-15T17:02:27.842Z,6.23
2019-02-15T17:04:59.902Z,6.23
2019-02-15T17:07:31.918Z,6.20
2019-02-15T17:10:04.111Z,6.07
2019-02-15T17:12:36.288Z,6.20
2019-02-15T17:15:09.122Z,5.47
2019-02-15T17:17:41.173Z,5.00
2019-02-15T17:20:13.214Z,5.50
2019-02-15T17:22:45.221Z,5.53
2019-02-15T17:25:17.261Z,5.17
2019-02-15T17:27:49.290Z,5.50
2019-02-15T17:30:22.596Z,4.30
2019-02-15T17:32:54.737Z,5.47
2019-02-15T17:35:26.738Z,5.57
2019-02-15T17:37:58.792Z,7.03
2019-02-15T17:40:30.824Z,6.70
2019-02-15T17:43:02.912Z,6.27
2019-02-15T17:45:34.896Z,6.50
2019-02-15T17:48:07.017Z,6.60
2019-02-15T17:50:39.029Z,5.67
2019-02-15T17:53:11.058Z,6.50
2019-02-15T17:55:43.152Z,7.17
2019-02-15T17:58:15.198Z,7.73
2019-02-15T18:00:47.511Z,7.30
2019-02-15T18:03:19.517Z,6.60
2019-02-15T18:05:51.581Z,6.40
2019-02-15T18:08:23.623Z,7.43
2019-02-15T18:10:55.686Z,8.40
2019-02-15T18:13:27.731Z,9.43
2019-02-15T18:15:59.760Z,9.07
2019-02-15T18:18:31.763Z,8.87
2019-02-15T18:21:03.843Z,9.27
2019-02-15T18:23:35.914Z,8.80
2019-02-15T18:26:07.935Z,9.00
2019-02-15T18:28:39.967Z,8.50
2019-02-15T18:31:11.991Z,8.33
2019-02-15T18:33:44.014Z,9.90
2019-02-15T18:36:16.059Z,9.40
2019-02-15T18:38:48.171Z,9.13
2019-02-15T18:41:20.219Z,8.57
2019-02-15T18:43:52.328Z,6.00
2019-02-15T18:46:24.338Z,8.13
2019-02-15T18:48:56.320Z,10.70
2019-02-15T18:51:28.374Z,12.13
2019-02-15T18:54:00.390Z,11.83
2019-02-15T18:56:51.886Z,9.20
2019-02-15T18:59:23.939Z,9.73
2019-02-15T19:01:55.968Z,6.93
2019-02-15T19:04:28.040Z,7.80
2019-02-15T19:07:00.069Z,7.40
2019-02-15T19:09:32.087Z,7.10
2019-02-15T19:12:04.162Z,5.53
2019-02-15T19:14:36.188Z,5.77
2019-02-15T19:17:08.266Z,5.47
2019-02-15T19:19:40.290Z,5.07
2019-02-15T19:22:12.420Z,6.40
2019-02-15T19:24:44.714Z,7.03
2019-02-15T19:27:16.754Z,8.33
2019-02-15T19:29:48.769Z,7.03
2019-02-15T19:32:20.816Z,7.90
2019-02-15T19:34:52.908Z,5.87
2019-02-15T19:37:24.977Z,5.90
2019-02-15T19:39:57.051Z,6.37
2019-02-15T19:42:29.113Z,6.30
2019-02-15T19:45:01.116Z,5.47
2019-02-15T19:47:33.241Z,6.23
2019-02-15T19:50:07.648Z,6.80
2019-02-15T19:52:39.989Z,6.90
2019-02-15T19:55:12.068Z,6.67
2019-02-15T19:57:44.135Z,7.03
2019-02-15T20:00:16.680Z,7.60
2019-02-15T20:02:48.699Z,6.97
2019-02-15T20:05:20.817Z,7.63
2019-02-15T20:07:52.959Z,6.30
2019-02-15T20:10:25.052Z,7.63
2019-02-15T20:12:57.132Z,7.17
2019-02-15T20:15:29.172Z,7.10
2019-02-15T20:18:01.229Z,11.87
2019-02-15T20:20:33.326Z,15.07
2019-02-15T20:23:05.478Z,11.90
2019-02-15T20:25:37.674Z,9.30
2019-02-15T20:28:14.180Z,8.37
2019-02-15T20:30:43.752Z,10.13
2019-02-15T20:33:15.967Z,8.50
2019-02-15T20:35:48.053Z,9.27
2019-02-15T20:38:20.310Z,9.37
2019-02-15T20:40:52.350Z,8.00
2019-02-15T20:43:24.524Z,7.10
2019-02-15T20:45:56.624Z,8.60
2019-02-15T20:48:28.679Z,9.43
2019-02-15T20:51:00.739Z,18.30
2019-02-15T20:53:32.810Z,13.37
2019-02-15T20:56:04.865Z,14.07
2019-02-15T20:58:36.945Z,11.13
2019-02-15T21:01:09.010Z,9.50
2019-02-15T21:03:41.219Z,11.37
2019-02-15T21:06:14.652Z,10.90
2019-02-15T21:08:47.047Z,10.10
2019-02-15T21:11:19.206Z,9.23
2019-02-15T21:13:51.228Z,10.40
2019-02-15T21:16:23.302Z,11.03
2019-02-15T21:18:55.354Z,10.80
2019-02-15T21:21:27.459Z,10.30
2019-02-15T21:23:59.602Z,8.67
2019-02-15T21:26:31.668Z,8.37
2019-02-15T21:29:03.756Z,9.57
2019-02-15T21:31:35.827Z,8.27
2019-02-15T21:34:07.911Z,9.33
2019-02-15T21:36:39.932Z,9.37
2019-02-15T21:39:11.989Z,10.67
2019-02-15T21:41:44.065Z,11.33
2019-02-15T21:44:16.106Z,12.17
2019-02-15T21:46:48.221Z,11.90
2019-02-15T21:49:20.329Z,11.40
2019-02-15T21:51:52.383Z,11.27
2019-02-15T21:54:24.460Z,11.23
2019-02-15T21:56:56.577Z,10.83
2019-02-15T21:59:28.954Z,11.47
2019-02-15T22:02:01.088Z,14.43
2019-02-15T22:04:33.251Z,15.60
2019-02-15T22:07:05.302Z,17.87
2019-02-15T22:09:37.368Z,15.97
2019-02-15T22:12:09.486Z,12.10
2019-02-15T22:14:41.519Z,13.03
2019-02-15T22:17:13.568Z,11.20
2019-02-15T22:19:45.579Z,11.03
2019-02-15T22:22:17.642Z,10.43
2019-02-15T22:24:49.805Z,10.53
2019-02-15T22:27:21.917Z,11.37
2019-02-15T22:29:53.953Z,13.33
2019-02-15T22:32:25.987Z,12.43
2019-02-15T22:35:00.790Z,10.40
2019-02-15T22:37:34.761Z,8.90
2019-02-15T22:40:39.814Z,8.57
2019-02-15T22:43:14.968Z,7.90
2019-02-15T22:45:47.098Z,8.20
2019-02-15T22:48:19.186Z,8.67
2019-02-15T22:50:51.492Z,10.20
2019-02-15T22:53:25.446Z,9.67
2019-02-15T22:55:57.603Z,9.33
2019-02-15T22:58:30.891Z,9.03
2019-02-15T23:01:06.163Z,8.83
2019-02-15T23:03:38.404Z,8.93
2019-02-15T23:06:10.430Z,8.47
2019-02-15T23:08:42.455Z,10.00
2019-02-15T23:11:14.477Z,8.90
2019-02-15T23:13:46.539Z,8.90
2019-02-15T23:16:18.563Z,9.17
2019-02-15T23:18:50.622Z,9.33
2019-02-15T23:21:22.596Z,8.73
2019-02-15T23:23:54.597Z,9.23
2019-02-15T23:26:26.683Z,9.90
2019-02-15T23:28:58.670Z,9.87
2019-02-15T23:31:30.660Z,9.93
2019-02-15T23:34:02.689Z,10.20
2019-02-15T23:36:34.682Z,11.00
2019-02-15T23:39:06.712Z,10.20
2019-02-15T23:41:38.702Z,10.27
2019-02-15T23:44:10.691Z,9.57
2019-02-15T23:46:42.702Z,9.57
2019-02-15T23:49:14.722Z,9.77
2019-02-15T23:51:46.726Z,10.00
2019-02-15T23:54:18.720Z,9.70
2019-02-15T23:56:50.735Z,9.13
2019-02-15T23:59:22.749Z,9.73
